Time;durP1;ratioP1;P1;durP2;ratioP2;P2;SDS_P1;SDS_P2;PMS_P1;PMS_P2;Temp;Humidity;BMP_temperature;BMP_pressure;BME280_temperature;BME280_humidity;BME280_pressure;Samples;Min_cycle;Max_cycle;Signal;HPM_P1;HPM_P2
2021/12/17 00:00:34;;;;;;;8.35;5.15;;;-1.30;99.90;;;;;;4407077;32;20077;-73
2021/12/17 00:05:45;;;;;;;7.95;5.28;;;-1.30;99.90;;;;;;4405824;32;20070;-73
2021/12/17 00:08:13;;;;;;;7.78;5.28;;;-1.30;99.90;;;;;;4397245;32;20061;-73
2021/12/17 00:10:42;;;;;;;7.57;5.00;;;-1.30;99.90;;;;;;4394530;32;20158;-72
2021/12/17 00:13:09;;;;;;;7.70;5.18;;;-1.30;99.90;;;;;;4406280;32;20101;-72
2021/12/17 00:15:37;;;;;;;8.60;5.43;;;-1.40;99.90;;;;;;4421644;32;20078;-73
2021/12/17 00:18:12;;;;;;;8.02;5.05;;;-1.30;99.90;;;;;;4406146;32;20177;-73
2021/12/17 00:40:20;;;;;;;7.57;5.32;;;-1.40;99.90;;;;;;4381923;32;20084;-74
2021/12/17 00:53:30;;;;;;;6.05;3.80;;;-1.30;99.90;;;;;;4406040;32;20089;-72
2021/12/17 00:55:56;;;;;;;6.12;4.20;;;-1.30;99.90;;;;;;4379931;32;20077;-72
2021/12/17 01:01:03;;;;;;;6.37;4.20;;;-1.30;99.90;;;;;;3857585;37;20439;-73
2021/12/17 01:03:30;;;;;;;6.47;4.20;;;-1.30;99.90;;;;;;4406294;32;20172;-73
2021/12/17 01:05:56;;;;;;;5.50;3.83;;;-1.30;99.90;;;;;;4420103;32;20164;-73
2021/12/17 01:08:23;;;;;;;5.65;3.70;;;-1.30;99.90;;;;;;4405769;32;20144;-71
2021/12/17 01:10:53;;;;;;;6.10;4.00;;;-1.30;99.90;;;;;;4419826;32;20176;-72
2021/12/17 01:13:23;;;;;;;5.80;3.70;;;-1.30;99.90;;;;;;4396633;32;20109;-73
2021/12/17 01:15:50;;;;;;;5.10;3.62;;;-1.30;99.90;;;;;;4378221;32;20089;-73
2021/12/17 01:18:20;;;;;;;6.05;3.87;;;-1.40;99.90;;;;;;4390260;32;20463;-72
2021/12/17 01:42:40;;;;;;;6.37;4.18;;;-1.40;99.90;;;;;;4404434;32;20105;-73
2021/12/17 01:45:07;;;;;;;6.45;3.87;;;-1.30;99.90;;;;;;4389752;32;20089;-73
2021/12/17 01:47:34;;;;;;;6.40;4.03;;;-1.40;99.90;;;;;;4390150;32;20073;-72
2021/12/17 01:55:49;;;;;;;6.12;3.83;;;-1.30;99.90;;;;;;4392113;32;20070;-73
2021/12/17 02:01:05;;;;;;;6.28;4.25;;;-1.30;99.90;;;;;;4403472;32;20544;-72
2021/12/17 02:03:32;;;;;;;6.93;4.10;;;-1.30;99.90;;;;;;4390085;32;20498;-72
2021/12/17 02:06:00;;;;;;;6.53;4.32;;;-1.30;99.90;;;;;;4389658;32;20162;-72
2021/12/17 02:08:26;;;;;;;5.53;3.97;;;-1.30;99.90;;;;;;4390185;32;20104;-72
2021/12/17 02:32:05;;;;;;;5.97;4.03;;;-1.20;99.90;;;;;;4379416;32;20090;-74
2021/12/17 02:37:18;;;;;;;6.35;4.22;;;-1.10;99.90;;;;;;4382729;32;20077;-73
2021/12/17 02:45:32;;;;;;;6.80;4.40;;;-1.20;99.90;;;;;;4392984;32;20062;-73
2021/12/17 02:48:07;;;;;;;6.82;4.35;;;-1.10;99.90;;;;;;4381102;32;20084;-73
2021/12/17 02:50:38;;;;;;;7.03;4.30;;;-1.10;99.90;;;;;;4378802;32;20073;-73
2021/12/17 02:53:09;;;;;;;5.93;4.25;;;-1.10;99.90;;;;;;4379132;32;20074;-72
2021/12/17 02:58:18;;;;;;;7.23;4.20;;;-1.10;99.90;;;;;;3831859;37;20066;-73
2021/12/17 03:00:45;;;;;;;6.55;4.45;;;-1.10;99.90;;;;;;4404813;32;20179;-73
2021/12/17 03:03:13;;;;;;;7.68;4.70;;;-1.10;99.90;;;;;;4390592;32;20082;-73
2021/12/17 03:05:41;;;;;;;8.15;5.22;;;-1.00;99.90;;;;;;4390381;32;20228;-72
2021/12/17 03:08:13;;;;;;;6.68;4.82;;;-1.10;99.90;;;;;;4391218;32;20088;-72
2021/12/17 03:10:40;;;;;;;7.12;4.62;;;-1.10;99.90;;;;;;4391403;32;20065;-72
2021/12/17 03:13:06;;;;;;;7.28;4.62;;;-1.00;99.90;;;;;;4383527;32;20166;-71
2021/12/17 03:23:40;;;;;;;7.65;4.85;;;-1.00;99.90;;;;;;4387844;32;20081;-73
2021/12/17 03:26:17;;;;;;;6.35;4.35;;;-1.10;99.90;;;;;;4354741;32;20133;-73
2021/12/17 03:28:47;;;;;;;8.43;5.12;;;-1.10;99.90;;;;;;4375256;32;20074;-73
2021/12/17 03:31:16;;;;;;;7.50;5.00;;;-1.10;99.90;;;;;;4389411;32;20079;-72
2021/12/17 03:33:45;;;;;;;6.22;4.28;;;-1.10;99.90;;;;;;4375155;32;20082;-73
2021/12/17 03:36:15;;;;;;;7.62;4.47;;;-1.20;99.90;;;;;;4374959;32;20101;-72
2021/12/17 03:38:43;;;;;;;6.87;4.60;;;-1.10;99.90;;;;;;4374900;32;20161;-72
2021/12/17 03:41:18;;;;;;;6.43;4.10;;;-1.10;99.90;;;;;;4362361;32;20082;-73
2021/12/17 03:43:50;;;;;;;6.07;4.18;;;-1.10;99.90;;;;;;4363685;32;20066;-73
2021/12/17 03:46:18;;;;;;;6.53;4.50;;;-1.10;99.90;;;;;;4362549;32;20429;-73
2021/12/17 03:48:46;;;;;;;7.70;5.07;;;-1.10;99.90;;;;;;4375227;32;20120;-73
2021/12/17 03:51:17;;;;;;;6.97;4.70;;;-1.20;99.90;;;;;;4374590;32;20152;-73
2021/12/17 03:53:54;;;;;;;6.50;4.47;;;-1.20;99.90;;;;;;4375384;32;20073;-72
2021/12/17 03:56:22;;;;;;;6.95;4.70;;;-1.20;99.90;;;;;;4375613;32;20137;-74
2021/12/17 03:58:51;;;;;;;7.25;5.03;;;-1.10;99.90;;;;;;4375088;32;20527;-73
2021/12/17 04:01:19;;;;;;;6.70;4.43;;;-1.20;99.90;;;;;;4369555;32;20070;-73
2021/12/17 04:03:46;;;;;;;8.25;4.45;;;-1.10;99.90;;;;;;4365678;32;20511;-73
2021/12/17 04:06:13;;;;;;;6.22;4.12;;;-1.10;99.90;;;;;;4374585;32;20496;-73
2021/12/17 04:08:39;;;;;;;6.90;4.30;;;-1.10;99.90;;;;;;4369353;32;20090;-73
2021/12/17 04:11:08;;;;;;;6.75;4.32;;;-1.10;99.90;;;;;;4352200;32;20489;-73
2021/12/17 04:13:38;;;;;;;6.68;4.43;;;-1.20;99.90;;;;;;4364083;32;20530;-72
2021/12/17 04:16:09;;;;;;;6.25;4.10;;;-1.20;99.90;;;;;;4364796;32;20078;-72
2021/12/17 04:18:40;;;;;;;7.72;4.47;;;-1.10;99.90;;;;;;4364522;32;20509;-72
2021/12/17 04:21:13;;;;;;;7.15;3.87;;;-1.10;99.90;;;;;;4364887;32;20070;-73
2021/12/17 04:23:42;;;;;;;6.30;3.60;;;-1.10;99.90;;;;;;4365530;32;20161;-73
2021/12/17 04:26:09;;;;;;;7.78;4.10;;;-1.10;99.90;;;;;;4364283;32;20074;-72
2021/12/17 04:28:41;;;;;;;6.57;3.80;;;-1.10;99.90;;;;;;4364197;32;20080;-73
2021/12/17 04:31:07;;;;;;;6.35;3.65;;;-1.10;99.90;;;;;;4364736;32;20448;-73
2021/12/17 04:33:34;;;;;;;5.95;3.75;;;-1.10;99.90;;;;;;4352817;32;20077;-73
2021/12/17 04:36:00;;;;;;;5.28;3.10;;;-1.10;99.90;;;;;;4378401;32;20084;-73
2021/12/17 04:38:28;;;;;;;7.28;3.80;;;-1.00;99.90;;;;;;4364032;32;20459;-72
2021/12/17 04:40:58;;;;;;;7.53;4.03;;;-1.10;99.90;;;;;;4378072;32;20066;-73
2021/12/17 04:43:42;;;;;;;6.05;3.58;;;-1.10;99.90;;;;;;4364078;32;20088;-73
2021/12/17 04:59:40;;;;;;;5.18;3.70;;;-1.00;99.90;;;;;;4370930;32;20149;-75
2021/12/17 05:02:07;;;;;;;5.47;3.55;;;-1.10;99.90;;;;;;4379672;32;20074;-73
2021/12/17 05:04:33;;;;;;;6.57;4.00;;;-1.10;99.90;;;;;;4351677;32;20070;-74
2021/12/17 05:07:00;;;;;;;5.45;3.12;;;-1.10;99.90;;;;;;4378005;32;20075;-72
2021/12/17 05:09:45;;;;;;;5.30;3.42;;;-1.00;99.90;;;;;;4364053;32;20078;-73
2021/12/17 05:20:55;;;;;;;3.45;2.33;;;-1.00;99.90;;;;;;4376744;32;20094;-72
2021/12/17 05:23:01;;;;;;;6.95;3.87;;;-1.00;99.90;;;;;;4368925;32;20519;-73
2021/12/17 05:25:29;;;;;;;5.70;3.70;;;-1.00;99.90;;;;;;4351049;32;20731;-73
2021/12/17 05:28:00;;;;;;;6.30;4.20;;;-1.00;99.90;;;;;;4364050;32;20493;-72
2021/12/17 05:30:33;;;;;;;7.50;3.85;;;-1.00;99.90;;;;;;4377245;32;20170;-73
2021/12/17 05:33:01;;;;;;;6.43;3.95;;;-1.10;99.90;;;;;;4351476;32;20124;-72
2021/12/17 05:35:28;;;;;;;5.75;3.58;;;-1.00;99.90;;;;;;4377246;32;20145;-72
2021/12/17 05:37:54;;;;;;;5.85;3.72;;;-1.10;99.90;;;;;;4363376;32;20062;-72
2021/12/17 05:40:21;;;;;;;5.68;3.70;;;-1.10;99.90;;;;;;4363149;32;20125;-72
2021/12/17 05:42:50;;;;;;;8.10;4.35;;;-1.10;99.90;;;;;;4364336;32;20097;-73
2021/12/17 05:45:36;;;;;;;7.30;4.40;;;-1.00;99.90;;;;;;4366613;32;20113;-72
2021/12/17 05:48:11;;;;;;;7.75;4.37;;;-1.00;99.90;;;;;;4365960;32;20066;-72
2021/12/17 05:50:40;;;;;;;6.78;3.97;;;-1.00;99.90;;;;;;4363564;32;20555;-73
2021/12/17 05:53:07;;;;;;;5.28;3.90;;;-1.00;99.90;;;;;;4363431;32;20089;-73
2021/12/17 05:55:35;;;;;;;7.43;3.90;;;-1.00;99.90;;;;;;4363148;32;20116;-73
2021/12/17 05:58:03;;;;;;;6.47;3.58;;;-1.00;99.90;;;;;;4362807;32;20074;-72
2021/12/17 06:00:31;;;;;;;5.97;3.37;;;-0.90;99.90;;;;;;4363663;32;20078;-73
2021/12/17 06:03:00;;;;;;;5.50;3.37;;;-1.00;99.90;;;;;;4362918;32;20120;-72
2021/12/17 06:05:28;;;;;;;5.32;3.30;;;-0.90;99.90;;;;;;4363010;32;20074;-72
2021/12/17 06:07:55;;;;;;;4.40;2.70;;;-0.90;99.90;;;;;;4363174;32;20097;-73
2021/12/17 06:10:22;;;;;;;6.57;3.67;;;-0.90;99.90;;;;;;4363153;32;20437;-72
2021/12/17 06:12:49;;;;;;;7.85;4.22;;;-1.00;99.90;;;;;;4362868;32;20532;-73
2021/12/17 06:15:19;;;;;;;4.97;3.08;;;-0.90;99.90;;;;;;4362555;32;20534;-74
2021/12/17 06:17:46;;;;;;;7.68;3.70;;;-0.90;99.90;;;;;;4338046;32;20155;-72
2021/12/17 06:20:15;;;;;;;6.53;4.00;;;-0.90;99.90;;;;;;4362900;32;20479;-72
2021/12/17 06:22:42;;;;;;;5.68;3.37;;;-0.90;99.90;;;;;;4362818;32;20182;-72
2021/12/17 06:25:10;;;;;;;6.45;3.47;;;-0.90;99.90;;;;;;4363524;32;20090;-73
2021/12/17 06:27:37;;;;;;;6.45;3.70;;;-0.90;99.90;;;;;;4350407;32;20105;-73
2021/12/17 06:30:09;;;;;;;7.20;3.95;;;-0.90;99.90;;;;;;4363479;32;20112;-72
2021/12/17 06:32:36;;;;;;;7.68;4.15;;;-0.90;99.90;;;;;;4374352;32;20063;-73
2021/12/17 06:35:04;;;;;;;7.37;4.85;;;-0.90;99.90;;;;;;4362807;32;20546;-73
2021/12/17 06:37:31;;;;;;;7.10;4.57;;;-0.90;99.90;;;;;;4362638;32;20097;-73
2021/12/17 06:39:58;;;;;;;7.37;4.37;;;-0.80;99.90;;;;;;4362769;32;20069;-73
2021/12/17 06:42:28;;;;;;;7.18;4.50;;;-0.80;99.90;;;;;;4362636;32;20077;-72
2021/12/17 06:44:59;;;;;;;6.68;4.18;;;-0.90;99.90;;;;;;4350980;32;20070;-72
2021/12/17 06:47:32;;;;;;;7.65;4.72;;;-0.90;99.90;;;;;;4361316;32;20543;-74
2021/12/17 07:01:13;;;;;;;7.50;4.40;;;-0.80;99.90;;;;;;4359456;32;20066;-72
2021/12/17 07:06:51;;;;;;;6.50;4.18;;;-0.80;99.90;;;;;;4353817;32;20090;-73
2021/12/17 07:09:57;;;;;;;7.70;4.70;;;-0.80;99.90;;;;;;4357705;32;20512;-72
2021/12/17 07:17:50;;;;;;;6.43;3.95;;;-0.70;99.90;;;;;;4360310;32;20066;-73
2021/12/17 07:23:22;;;;;;;7.10;4.07;;;-0.80;99.90;;;;;;4355795;32;20070;-73
2021/12/17 07:33:58;;;;;;;7.10;4.00;;;-0.80;99.90;;;;;;4358829;32;20117;-72
2021/12/17 07:36:25;;;;;;;6.90;4.00;;;-0.70;99.90;;;;;;4343850;32;20055;-72
2021/12/17 07:38:51;;;;;;;6.07;4.00;;;-0.70;99.90;;;;;;4359045;32;20081;-72
2021/12/17 07:41:20;;;;;;;10.32;4.57;;;-0.70;99.90;;;;;;4344592;32;20078;-73
2021/12/17 07:43:55;;;;;;;7.35;4.70;;;-0.70;99.90;;;;;;4338258;33;20074;-73
2021/12/17 07:46:23;;;;;;;7.45;4.20;;;-0.70;99.90;;;;;;4346762;33;20171;-72
2021/12/17 07:48:50;;;;;;;8.25;4.80;;;-0.70;99.90;;;;;;4341412;32;20082;-73
2021/12/17 07:51:18;;;;;;;7.60;4.40;;;-0.70;99.90;;;;;;4363346;32;20082;-73
2021/12/17 07:53:47;;;;;;;6.53;4.03;;;-0.70;99.90;;;;;;4360612;32;20106;-72
2021/12/17 07:56:19;;;;;;;6.60;3.97;;;-0.60;99.90;;;;;;4343590;32;20098;-73
2021/12/17 07:58:45;;;;;;;7.28;4.55;;;-0.70;99.90;;;;;;4349096;32;20174;-72
2021/12/17 08:01:13;;;;;;;7.57;4.60;;;-0.70;99.90;;;;;;4367308;32;20489;-73
2021/12/17 08:03:41;;;;;;;7.18;4.18;;;-0.70;99.90;;;;;;4356433;32;20106;-73
2021/12/17 08:06:08;;;;;;;6.87;4.70;;;-0.70;99.90;;;;;;4348198;32;20062;-72
2021/12/17 08:08:35;;;;;;;6.80;4.20;;;-0.60;99.90;;;;;;4366279;32;20179;-71
2021/12/17 08:11:02;;;;;;;7.00;4.35;;;-0.60;99.90;;;;;;4356403;32;20078;-72
2021/12/17 08:13:32;;;;;;;6.97;4.00;;;-0.60;99.90;;;;;;4346707;32;20084;-74
2021/12/17 08:18:47;;;;;;;6.43;4.20;;;-0.50;99.90;;;;;;4362222;32;20082;-74
2021/12/17 08:32:06;;;;;;;7.00;4.32;;;-0.50;99.90;;;;;;4353145;32;20533;-69
2021/12/17 08:34:33;;;;;;;6.57;4.05;;;-0.50;99.90;;;;;;4365387;32;20070;-71
2021/12/17 08:37:00;;;;;;;7.30;4.68;;;-0.40;99.90;;;;;;4355810;32;20078;-71
2021/12/17 08:39:29;;;;;;;6.00;3.60;;;-0.50;99.90;;;;;;4349413;32;20071;-71
2021/12/17 08:41:56;;;;;;;7.37;4.05;;;-0.40;99.90;;;;;;4360941;32;20078;-72
2021/12/17 08:44:23;;;;;;;6.20;3.95;;;-0.40;99.90;;;;;;4359072;32;20476;-70
2021/12/17 08:46:50;;;;;;;8.50;4.35;;;-0.40;99.90;;;;;;4342733;32;20074;-72
2021/12/17 08:49:17;;;;;;;5.85;3.72;;;-0.40;99.90;;;;;;4353948;32;20504;-71
2021/12/17 08:51:44;;;;;;;6.97;4.15;;;-0.40;99.90;;;;;;4361342;32;20109;-71
2021/12/17 08:54:11;;;;;;;7.00;4.62;;;-0.40;99.90;;;;;;4359918;32;20078;-68
2021/12/17 08:56:46;;;;;;;6.15;3.50;;;-0.40;99.90;;;;;;4360967;32;20505;-69
2021/12/17 08:59:16;;;;;;;7.15;4.32;;;-0.40;99.90;;;;;;4353975;32;20159;-74
2021/12/17 09:01:45;;;;;;;6.82;4.30;;;-0.40;99.90;;;;;;4360856;32;20074;-73
2021/12/17 09:04:12;;;;;;;5.85;4.40;;;-0.30;99.90;;;;;;4338206;32;20087;-72
2021/12/17 09:06:38;;;;;;;6.90;4.22;;;-0.30;99.90;;;;;;4341813;32;20093;-70
2021/12/17 09:09:05;;;;;;;6.22;3.95;;;-0.30;99.90;;;;;;4364256;32;20067;-73
2021/12/17 09:11:32;;;;;;;6.82;4.10;;;-0.40;99.90;;;;;;4353772;32;20154;-73
2021/12/17 09:14:01;;;;;;;7.65;4.43;;;-0.40;99.90;;;;;;4347679;32;20069;-72
2021/12/17 09:16:28;;;;;;;6.28;4.00;;;-0.30;99.90;;;;;;4355119;32;20090;-70
2021/12/17 09:18:56;;;;;;;6.93;4.22;;;-0.30;99.90;;;;;;4346449;32;20153;-72
2021/12/17 09:21:23;;;;;;;6.45;4.15;;;-0.30;99.90;;;;;;4358792;32;20090;-72
2021/12/17 09:23:49;;;;;;;8.13;4.60;;;-0.30;99.90;;;;;;4352553;32;20057;-73
2021/12/17 09:26:17;;;;;;;6.78;4.18;;;-0.20;99.90;;;;;;4373656;32;20086;-74
2021/12/17 09:28:44;;;;;;;8.75;5.32;;;-0.30;99.90;;;;;;4356157;32;20059;-73
2021/12/17 09:31:12;;;;;;;7.50;4.70;;;-0.20;99.90;;;;;;4358983;32;20109;-74
2021/12/17 09:33:46;;;;;;;6.53;4.40;;;-0.30;99.90;;;;;;4347241;32;20090;-73
2021/12/17 09:36:13;;;;;;;7.35;4.07;;;-0.20;99.90;;;;;;4364329;32;20098;-73
2021/12/17 09:38:40;;;;;;;7.82;4.75;;;-0.20;99.90;;;;;;4358235;32;20078;-70
2021/12/17 09:41:07;;;;;;;8.18;4.72;;;-0.10;99.90;;;;;;4367083;32;20082;-69
2021/12/17 09:43:36;;;;;;;8.02;4.35;;;-0.10;99.90;;;;;;4348112;32;20070;-71
2021/12/17 09:46:06;;;;;;;7.90;4.53;;;-0.10;99.90;;;;;;4343943;32;20062;-70
2021/12/17 09:48:35;;;;;;;7.15;4.22;;;-0.10;99.90;;;;;;4350207;32;20175;-71
2021/12/17 09:51:04;;;;;;;8.20;4.18;;;-0.10;99.90;;;;;;4353581;32;20171;-70
2021/12/17 09:53:32;;;;;;;7.68;4.12;;;0.00;99.90;;;;;;4338333;32;20070;-68
2021/12/17 09:55:59;;;;;;;6.30;3.85;;;-0.10;99.90;;;;;;4350577;32;20513;-73
2021/12/17 09:58:26;;;;;;;7.85;3.90;;;0.00;99.90;;;;;;4359808;32;20540;-71
2021/12/17 10:00:52;;;;;;;6.20;3.78;;;0.00;99.90;;;;;;4376299;32;20077;-72
2021/12/17 10:03:20;;;;;;;5.60;3.22;;;0.10;99.90;;;;;;4376351;32;20090;-72
2021/12/17 10:05:47;;;;;;;5.62;3.05;;;0.20;99.90;;;;;;4349483;32;20096;-71
2021/12/17 10:08:22;;;;;;;5.35;3.10;;;0.20;99.90;;;;;;4350012;32;20537;-71
2021/12/17 10:10:58;;;;;;;5.27;3.07;;;0.20;99.90;;;;;;4376269;32;20098;-71
2021/12/17 10:13:30;;;;;;;5.30;2.95;;;0.20;99.90;;;;;;4350562;32;20175;-71
2021/12/17 10:16:05;;;;;;;5.15;2.87;;;0.20;99.90;;;;;;4377182;32;20090;-71
2021/12/17 10:18:38;;;;;;;5.25;3.42;;;0.20;99.90;;;;;;4363307;32;20062;-71
2021/12/17 10:21:17;;;;;;;5.30;2.97;;;0.20;99.90;;;;;;4363378;32;20150;-72
2021/12/17 10:23:44;;;;;;;5.50;3.25;;;0.30;99.90;;;;;;4377304;32;20073;-71
2021/12/17 10:26:17;;;;;;;5.00;3.35;;;0.20;99.90;;;;;;4351038;32;20089;-71
2021/12/17 10:29:01;;;;;;;4.93;2.53;;;0.20;99.90;;;;;;4363539;32;20078;-70
2021/12/17 10:31:31;;;;;;;6.45;2.87;;;0.20;99.90;;;;;;4376563;32;20167;-71
2021/12/17 10:34:03;;;;;;;5.37;3.37;;;0.20;99.90;;;;;;4375201;32;20097;-72
2021/12/17 10:36:35;;;;;;;5.85;2.72;;;0.20;99.90;;;;;;4362901;32;20142;-72
2021/12/17 10:39:31;;;;;;;5.62;3.05;;;0.20;99.90;;;;;;4350915;32;20077;-71
2021/12/17 10:41:58;;;;;;;4.50;2.93;;;0.20;99.90;;;;;;4362403;32;20072;-71
2021/12/17 10:44:27;;;;;;;5.45;2.75;;;0.20;99.90;;;;;;4350320;32;20099;-72
2021/12/17 10:47:32;;;;;;;6.07;2.87;;;0.20;99.90;;;;;;4362664;32;20520;-72
2021/12/17 10:49:56;;;;;;;4.43;2.80;;;0.30;99.90;;;;;;4351692;32;20575;-72
2021/12/17 10:52:32;;;;;;;5.85;2.90;;;0.30;99.90;;;;;;4364817;32;20077;-71
2021/12/17 10:55:23;;;;;;;5.50;3.10;;;0.30;99.90;;;;;;4364546;32;20438;-71
2021/12/17 10:57:50;;;;;;;5.37;2.72;;;0.30;99.90;;;;;;4362619;32;20090;-71
2021/12/17 11:00:17;;;;;;;4.37;2.45;;;0.20;99.90;;;;;;4377110;32;20069;-73
2021/12/17 11:02:52;;;;;;;4.57;2.40;;;0.30;99.90;;;;;;4362247;32;20520;-72
2021/12/17 11:05:20;;;;;;;4.75;2.80;;;0.20;99.90;;;;;;4363311;32;20085;-72
2021/12/17 11:07:48;;;;;;;5.05;3.05;;;0.30;99.90;;;;;;4349828;32;20075;-72
2021/12/17 11:10:17;;;;;;;4.07;2.62;;;0.20;99.90;;;;;;4349867;32;20101;-72
2021/12/17 11:12:45;;;;;;;5.15;2.92;;;0.20;99.90;;;;;;4375997;32;20105;-71
2021/12/17 11:15:21;;;;;;;4.32;2.62;;;0.30;99.90;;;;;;4376776;32;20066;-71
2021/12/17 11:18:00;;;;;;;3.03;2.22;;;0.20;99.90;;;;;;4385367;32;20073;-72
2021/12/17 11:20:27;;;;;;;5.50;2.78;;;0.40;99.90;;;;;;4365907;32;20166;-72
2021/12/17 11:22:56;;;;;;;5.45;2.62;;;0.30;99.90;;;;;;4365217;32;20074;-71
2021/12/17 11:25:24;;;;;;;4.50;2.67;;;0.30;99.90;;;;;;4352800;32;20094;-72
2021/12/17 11:27:52;;;;;;;5.10;3.20;;;0.30;99.90;;;;;;4365048;32;20080;-72
2021/12/17 11:30:23;;;;;;;5.95;3.53;;;0.20;99.90;;;;;;4365044;32;20093;-71
2021/12/17 11:32:52;;;;;;;5.55;3.28;;;0.20;99.90;;;;;;4352768;32;20080;-72
2021/12/17 11:35:22;;;;;;;6.65;3.20;;;0.10;99.90;;;;;;4378930;32;20467;-71
2021/12/17 11:37:55;;;;;;;5.80;3.62;;;0.10;99.90;;;;;;4365008;32;20112;-72
2021/12/17 11:40:45;;;;;;;6.75;3.55;;;0.00;99.90;;;;;;4353221;32;20078;-71
2021/12/17 11:43:37;;;;;;;6.62;3.67;;;0.00;99.90;;;;;;4366118;32;20085;-71
2021/12/17 11:46:15;;;;;;;6.20;3.70;;;0.00;99.90;;;;;;4382074;32;20066;-71
2021/12/17 11:49:15;;;;;;;5.62;3.62;;;0.00;99.90;;;;;;4354529;32;20070;-71
2021/12/17 11:51:53;;;;;;;7.00;4.10;;;0.00;99.90;;;;;;4360698;32;20074;-71
2021/12/17 11:54:26;;;;;;;4.95;3.00;;;0.00;99.90;;;;;;4352379;32;20134;-71
2021/12/17 11:57:05;;;;;;;5.53;3.00;;;0.00;99.90;;;;;;4361128;32;20074;-75
2021/12/17 11:59:42;;;;;;;6.40;3.78;;;0.10;99.90;;;;;;4351932;32;20518;-66
2021/12/17 12:02:19;;;;;;;5.80;3.22;;;0.10;99.90;;;;;;4376369;32;20074;-67
2021/12/17 12:04:54;;;;;;;6.32;4.07;;;0.10;99.90;;;;;;4371522;32;20089;-72
2021/12/17 12:07:34;;;;;;;5.87;3.12;;;0.10;99.90;;;;;;4364939;32;20074;-71
2021/12/17 12:10:11;;;;;;;6.70;3.33;;;0.10;99.90;;;;;;4378411;32;20101;-74
2021/12/17 12:12:46;;;;;;;6.00;3.50;;;0.00;99.90;;;;;;4379444;32;20545;-72
2021/12/17 12:15:21;;;;;;;6.53;3.92;;;0.10;99.90;;;;;;4378959;32;20105;-73
2021/12/17 12:18:15;;;;;;;7.18;4.43;;;0.10;99.90;;;;;;4376386;32;20082;-73
2021/12/17 12:20:52;;;;;;;5.72;3.80;;;0.10;99.90;;;;;;4361838;32;20076;-73
2021/12/17 12:23:36;;;;;;;5.75;3.20;;;0.10;99.90;;;;;;4364796;32;20093;-73
2021/12/17 12:26:02;;;;;;;4.80;2.85;;;0.10;99.90;;;;;;4350136;32;20078;-75
2021/12/17 12:28:50;;;;;;;5.15;3.10;;;0.10;99.90;;;;;;4361305;32;20542;-73
2021/12/17 12:31:27;;;;;;;5.55;2.60;;;0.20;99.90;;;;;;4349518;32;20095;-74
2021/12/17 12:37:04;;;;;;;5.82;3.40;;;0.20;99.90;;;;;;4367437;32;20063;-71
2021/12/17 12:39:45;;;;;;;6.62;3.58;;;0.20;99.90;;;;;;4363850;32;20063;-72
2021/12/17 12:42:26;;;;;;;5.70;3.80;;;0.20;99.90;;;;;;4355175;32;20100;-73
2021/12/17 12:44:57;;;;;;;5.93;3.67;;;0.30;99.90;;;;;;4352881;32;20070;-73
2021/12/17 12:47:26;;;;;;;5.70;3.53;;;0.30;99.90;;;;;;4374650;32;20070;-72
2021/12/17 12:50:04;;;;;;;6.00;3.67;;;0.30;99.90;;;;;;4355206;32;20128;-73
2021/12/17 12:52:30;;;;;;;5.70;3.85;;;0.30;99.90;;;;;;4357115;32;20166;-73
2021/12/17 12:55:20;;;;;;;5.37;3.20;;;0.30;99.90;;;;;;4349548;32;20580;-73
2021/12/17 12:58:14;;;;;;;6.35;4.03;;;0.30;99.90;;;;;;4369875;32;20074;-73
2021/12/17 13:00:57;;;;;;;5.80;3.40;;;0.30;99.90;;;;;;4363946;32;20109;-72
2021/12/17 13:03:30;;;;;;;7.05;3.40;;;0.20;99.90;;;;;;4338482;32;20058;-69
2021/12/17 13:05:59;;;;;;;6.03;3.45;;;0.20;99.90;;;;;;4355146;32;20625;-73
2021/12/17 13:08:27;;;;;;;5.32;3.53;;;0.30;99.90;;;;;;4348440;32;20083;-72
2021/12/17 13:10:58;;;;;;;6.72;3.30;;;0.30;99.90;;;;;;4369462;32;20077;-72
2021/12/17 13:16:12;;;;;;;5.25;3.10;;;0.30;99.90;;;;;;4364260;32;20085;-72
2021/12/17 13:24:13;;;;;;;5.43;3.03;;;0.20;99.90;;;;;;4352191;32;20526;-73
2021/12/17 13:26:52;;;;;;;5.03;3.50;;;0.30;99.90;;;;;;4365030;32;20138;-73
2021/12/17 13:29:30;;;;;;;4.70;2.80;;;0.30;99.90;;;;;;4339669;32;20074;-72
2021/12/17 13:32:17;;;;;;;5.43;3.25;;;0.30;99.90;;;;;;4337115;32;20140;-71
2021/12/17 13:34:53;;;;;;;5.72;3.15;;;0.20;99.90;;;;;;4355360;32;20066;-71
2021/12/17 13:37:38;;;;;;;6.45;3.10;;;0.20;99.90;;;;;;4349651;32;20065;-73
2021/12/17 13:40:09;;;;;;;5.65;3.28;;;0.20;99.90;;;;;;4356711;32;20476;-70
2021/12/17 13:42:39;;;;;;;5.87;3.30;;;0.20;99.90;;;;;;4337846;32;20177;-71
2021/12/17 13:45:13;;;;;;;5.60;3.40;;;0.20;99.90;;;;;;4337589;32;20086;-73
2021/12/17 13:47:45;;;;;;;5.32;3.30;;;0.20;99.90;;;;;;4347900;32;20086;-71
2021/12/17 13:50:43;;;;;;;5.43;3.33;;;0.30;99.90;;;;;;4358766;32;20077;-72
2021/12/17 13:53:15;;;;;;;5.12;3.10;;;0.30;99.90;;;;;;4330410;32;20082;-71
2021/12/17 13:55:46;;;;;;;4.70;3.20;;;0.30;99.90;;;;;;4358762;32;20093;-73
2021/12/17 13:58:20;;;;;;;6.05;3.40;;;0.20;99.90;;;;;;4359943;32;20461;-71
2021/12/17 14:00:52;;;;;;;4.72;3.20;;;0.20;99.90;;;;;;4360395;32;20608;-72
2021/12/17 14:03:23;;;;;;;4.82;3.25;;;0.30;99.90;;;;;;4349162;32;20175;-74
2021/12/17 14:05:56;;;;;;;5.78;3.67;;;0.30;99.90;;;;;;4346269;32;20216;-71
2021/12/17 14:08:23;;;;;;;5.97;3.22;;;0.30;99.90;;;;;;4329739;32;20476;-72
2021/12/17 14:10:54;;;;;;;5.30;3.03;;;0.20;99.90;;;;;;4347713;32;20636;-70
2021/12/17 14:13:29;;;;;;;5.32;3.20;;;0.20;99.90;;;;;;4359307;32;20073;-68
2021/12/17 14:15:57;;;;;;;7.25;3.22;;;0.20;99.90;;;;;;4353404;32;20511;-67
2021/12/17 14:18:27;;;;;;;7.22;3.70;;;0.20;99.90;;;;;;4382430;32;20161;-67
2021/12/17 14:20:57;;;;;;;5.05;3.33;;;0.20;99.90;;;;;;4361562;32;20089;-70
2021/12/17 14:23:26;;;;;;;6.37;3.00;;;0.20;99.90;;;;;;4359466;32;20080;-70
2021/12/17 14:25:55;;;;;;;6.18;3.55;;;0.20;99.90;;;;;;4370846;32;20090;-69
2021/12/17 14:28:35;;;;;;;5.15;3.10;;;0.10;99.90;;;;;;4349963;32;20151;-68
2021/12/17 14:31:14;;;;;;;6.72;3.50;;;0.20;99.90;;;;;;4347401;32;20754;-70
2021/12/17 14:33:49;;;;;;;6.75;3.78;;;0.20;99.90;;;;;;4361478;32;20505;-70
2021/12/17 14:36:39;;;;;;;6.40;3.55;;;0.10;99.90;;;;;;4356122;32;20078;-70
2021/12/17 14:39:20;;;;;;;5.60;3.42;;;0.10;99.90;;;;;;4360772;32;20456;-67
2021/12/17 14:41:57;;;;;;;4.62;2.78;;;0.20;99.90;;;;;;4349065;32;20084;-69
2021/12/17 14:47:09;;;;;;;5.22;3.37;;;0.20;99.90;;;;;;4360186;32;19989;-72
2021/12/17 15:00:58;;;;;;;5.32;3.30;;;0.20;99.90;;;;;;4364205;32;20146;-73
2021/12/17 15:03:42;;;;;;;5.55;3.50;;;0.20;99.90;;;;;;4361584;32;20081;-68
2021/12/17 15:06:12;;;;;;;5.32;3.40;;;0.20;99.90;;;;;;4373041;32;20092;-69
2021/12/17 15:08:40;;;;;;;5.95;3.70;;;0.20;99.90;;;;;;4358460;32;20162;-69
2021/12/17 15:11:15;;;;;;;5.25;3.53;;;0.20;99.90;;;;;;4361175;32;20074;-67
2021/12/17 15:13:42;;;;;;;6.10;3.70;;;0.20;99.90;;;;;;4362664;32;20076;-65
2021/12/17 15:16:08;;;;;;;7.37;3.50;;;0.20;99.90;;;;;;4362341;32;20174;-65
2021/12/17 15:18:37;;;;;;;5.75;3.70;;;0.10;99.90;;;;;;4376374;32;20072;-66
2021/12/17 15:21:03;;;;;;;5.30;3.20;;;0.20;99.90;;;;;;4376193;32;20090;-67
2021/12/17 15:23:30;;;;;;;6.10;3.78;;;0.20;99.90;;;;;;4376771;32;20097;-68
2021/12/17 15:25:56;;;;;;;8.13;4.12;;;0.10;99.90;;;;;;4376393;32;20090;-66
2021/12/17 15:28:25;;;;;;;5.68;3.67;;;0.10;99.90;;;;;;4375753;32;20476;-68
2021/12/17 15:31:00;;;;;;;5.93;3.72;;;0.10;99.90;;;;;;4362104;32;20555;-67
2021/12/17 15:33:27;;;;;;;6.37;3.65;;;0.20;99.90;;;;;;4362503;32;20063;-66
2021/12/17 15:35:54;;;;;;;5.90;3.20;;;0.20;99.90;;;;;;4362232;32;20598;-68
2021/12/17 15:38:23;;;;;;;6.22;3.65;;;0.10;99.90;;;;;;4362160;32;20541;-65
2021/12/17 15:40:51;;;;;;;5.57;3.50;;;0.20;99.90;;;;;;4376123;32;20162;-65
2021/12/17 15:43:19;;;;;;;5.85;3.78;;;0.10;99.90;;;;;;4349802;32;20116;-66
2021/12/17 15:45:48;;;;;;;7.10;4.05;;;0.20;99.90;;;;;;4349580;32;20070;-66
2021/12/17 15:48:18;;;;;;;6.05;3.92;;;0.20;99.90;;;;;;4362240;32;20081;-66
2021/12/17 15:50:45;;;;;;;6.25;3.92;;;0.20;99.90;;;;;;4362504;32;20586;-67
2021/12/17 15:53:12;;;;;;;6.57;3.87;;;0.10;99.90;;;;;;4350004;32;20090;-65
2021/12/17 15:55:40;;;;;;;6.50;3.50;;;0.10;99.90;;;;;;4362044;32;20093;-66
2021/12/17 15:58:08;;;;;;;5.68;3.53;;;0.20;99.90;;;;;;4361999;32;20082;-67
2021/12/17 16:00:36;;;;;;;6.57;3.60;;;0.20;99.90;;;;;;4355834;32;20082;-66
2021/12/17 16:03:07;;;;;;;5.53;3.58;;;0.20;99.90;;;;;;4355145;32;20578;-69
2021/12/17 16:05:35;;;;;;;6.95;3.62;;;0.20;99.90;;;;;;4384037;32;20062;-67
2021/12/17 16:08:04;;;;;;;6.47;3.95;;;0.20;99.90;;;;;;4365580;32;20070;-66
2021/12/17 16:21:43;;;;;;;7.25;3.70;;;0.10;99.90;;;;;;4378274;32;20461;-65
2021/12/17 16:24:10;;;;;;;6.50;3.87;;;0.10;99.90;;;;;;4364723;32;20090;-66
2021/12/17 16:26:36;;;;;;;5.87;3.60;;;0.10;99.90;;;;;;4352053;32;20516;-67
2021/12/17 16:29:03;;;;;;;5.43;3.45;;;0.10;99.90;;;;;;4378703;32;20073;-66
2021/12/17 16:31:31;;;;;;;6.10;3.80;;;0.10;99.90;;;;;;4365233;32;20553;-66
2021/12/17 16:34:02;;;;;;;6.10;3.87;;;0.20;99.90;;;;;;4364410;32;20539;-66
2021/12/17 16:36:31;;;;;;;6.80;3.55;;;0.10;99.90;;;;;;4364966;32;20226;-67
2021/12/17 16:38:57;;;;;;;5.30;3.40;;;0.10;99.90;;;;;;4378518;32;20136;-66